• Join FlightAware (Why Join?)
  • Login
  • US Flag 
11:54AM EDT


 

Airport Tracker/Info


-or-


 

Live Flight TrackerFlight Track Log ✈ N523JM ✈ 30-Dec-2013 ✈ KOSU - KPBI

Flight Track Log - Related Links

Times and Time Zones

All times are in EST time to prevent confusion due to time zone crossing. See the N523JM flight status page for this flight to view local times or setup timezone preferences in your user account.

Time Position Orientation Groundspeed Altitude Reporting Facility
EST Latitude Longitude Course Direction KTS MPH feet Rate Location/Type
10:06AM 40.0758 -83.0858 263° West 178 205 1,200  Level Indianapolis Center
10:06AM 40.0711 -83.1342 263° West 242 278 2,600 1,080 Climbing Indianapolis Center
10:07AM 40.0211 -83.1725 210° Southwest 234 269 3,000 360 Climbing Indianapolis Center
10:08AM 40.0100 -83.1694 168° South 230 265 3,100 2,280 Climbing Indianapolis Center
10:09AM 39.9486 -83.1292 153° Southeast 240 276 6,100 2,460 Climbing Indianapolis Center
10:10AM 39.8872 -83.0814 149° Southeast 258 297 8,200 2,040 Climbing Indianapolis Center
10:11AM 39.7972 -83.0144 150° Southeast 309 356 10,400 2,040 Climbing Indianapolis Center
10:12AM 39.7106 -82.9483 150° Southeast 356 410 12,400 1,920 Climbing Indianapolis Center
10:13AM 39.6186 -82.8764 149° Southeast 380 437 14,400 1,980 Climbing Indianapolis Center
10:14AM 39.5139 -82.8503 169° South 380 437 16,500 1,800 Climbing Indianapolis Center
10:15AM 39.4083 -82.8306 172° South 382 440 18,200 1,800 Climbing Indianapolis Center
10:16AM 39.2989 -82.8064 170° South 394 453 20,300 2,040 Climbing Indianapolis Center
10:17AM 39.1864 -82.7808 170° South 408 470 22,400 2,160 Climbing Indianapolis Center
10:18AM 39.0556 -82.7522 170° South 412 474 24,800 2,100 Climbing Indianapolis Center
10:19AM 38.9439 -82.7289 171° South 407 468 26,800 1,980 Climbing Indianapolis Center
10:20AM 38.8356 -82.7036 170° South 398 458 28,900 1,980 Climbing Indianapolis Center
10:21AM 38.7325 -82.6825 171° South 382 440 30,900 1,980 Climbing Indianapolis Center
10:22AM 38.6283 -82.6581 170° South 352 405 33,000 1,800 Climbing Indianapolis Center
10:23AM 38.5383 -82.6400 171° South 329 379 34,600 1,260 Climbing Indianapolis Center
10:24AM 38.4525 -82.6225 171° South 314 361 35,700 960 Climbing Indianapolis Center
10:25AM 38.3672 -82.6044 171° South 310 357 36,600 600 Climbing Indianapolis Center
10:26AM 38.2808 -82.5858 170° South 313 360 37,000 180 Climbing Indianapolis Center
10:27AM 38.1886 -82.5667 171° South 330 380 37,000  Level Indianapolis Center
10:28AM 38.0914 -82.5464 171° South 349 402 37,000  Level Indianapolis Center
10:29AM 37.9722 -82.5222 171° South 367 422 37,000  Level Indianapolis Center
10:30AM 37.8653 -82.4992 170° South 382 440 37,000  Level Indianapolis Center
10:31AM 37.7553 -82.4744 170° South 397 457 37,000  Level Indianapolis Center
10:32AM 37.6450 -82.4528 171° South 399 459 37,000  Level Indianapolis Center
10:33AM 37.5336 -82.4306 171° South 401 461 37,000  Level Indianapolis Center
10:34AM 37.4217 -82.4064 170° South 405 466 37,000  Level Indianapolis Center
10:35AM 37.3089 -82.3836 171° South 409 471 37,000  Level Indianapolis Center
10:36AM 37.1961 -82.3600 171° South 408 470 37,000  Level Indianapolis Center
10:37AM 37.0825 -82.3367 171° South 409 471 37,000  Level Indianapolis Center
10:38AM 36.9675 -82.3125 170° South 413 475 37,000  Level Indianapolis Center
10:39AM 36.8314 -82.2856 171° South 418 481 37,000  Level Indianapolis Center
10:40AM 36.7161 -82.2614 170° South 417 480 37,000  Level Indianapolis Center
10:41AM 36.5992 -82.2378 171° South 421 484 37,000  Level Indianapolis Center
10:43AM 36.4806 -82.2136 171° South 425 489 37,000 240 Level Indianapolis Center
10:44AM 36.3631 -82.1906 171° South 426 490 37,500 420 Climbing Indianapolis Center
10:45AM 36.2481 -82.1669 171° South 419 482 37,900 240 Climbing Indianapolis Center
10:46AM 36.1339 -82.1444 171° South 415 478 38,000  Climbing Indianapolis Center
10:47AM 35.9828 -82.1142 171° South 419 482 38,000  Level Atlanta Center
10:48AM 35.8675 -82.0914 171° South 424 488 38,000  Level Atlanta Center
10:49AM 35.7461 -82.0686 171° South 433 498 38,000  Level Atlanta Center
10:50AM 35.6292 -82.0483 172° South 428 493 38,000  Level Atlanta Center
10:51AM 35.5164 -82.0486 180° South 423 487 38,000  Level Atlanta Center
10:52AM 35.4039 -82.0614 185° South 411 473 38,000  Level Atlanta Center
10:53AM 35.2958 -82.0742 186° South 404 465 38,000  Level Atlanta Center
10:54AM 35.1853 -82.0897 187° South 404 465 38,000  Level Atlanta Center
10:55AM 35.0750 -82.1025 185° South 404 465 38,000  Level Atlanta Center
10:56AM 34.9644 -82.1150 185° South 404 465 38,000  Level Atlanta Center
10:57AM 34.8542 -82.1253 184° South 404 465 38,000  Level Atlanta Center
10:58AM 34.7439 -82.1403 186° South 404 465 38,000  Level Atlanta Center
10:59AM 34.6333 -82.1506 184° South 404 465 38,000  Level Atlanta Center
11:00AM 34.5208 -82.1631 185° South 404 465 38,000  Level Atlanta Center
11:01AM 34.4083 -82.1756 185° South 404 465 38,000  Level Atlanta Center
11:02AM 34.2958 -82.1931 187° South 404 465 38,000  Level Atlanta Center
11:03AM 34.1833 -82.2058 185° South 404 465 38,000  Level Atlanta Center
11:04AM 34.0689 -82.2183 185° South 404 465 38,000  Level Atlanta Center
11:05AM 33.9542 -82.2306 185° South 404 465 38,000  Level Atlanta Center
11:06AM 33.8417 -82.2406 184° South 409 471 38,000  Level Atlanta Center
11:07AM 33.7250 -82.2506 184° South 414 476 38,000  Level Atlanta Center
11:08AM 33.6061 -82.2703 188° South 425 489 38,000  Level Atlanta Center
11:09AM 33.4767 -82.2631 177° South 420 483 38,000  Level Atlanta Center
11:10AM 33.3656 -82.2306 166° South 451 519 38,000  Level Atlanta Center
11:11AM 33.2336 -82.1936 167° South 451 519 38,000  Level Atlanta Center
11:12AM 33.1203 -82.1589 166° South 456 525 38,000  Level Atlanta Center
11:14AM 32.8717 -82.0886 167° South 463 533 38,000  Level Jacksonville Center
11:15AM 32.7483 -82.0528 166° South 458 527 38,000  Level Jacksonville Center
11:16AM 32.6269 -82.0194 167° South 453 521 38,000  Level Jacksonville Center
11:17AM 32.4972 -81.9836 167° South 435 501 38,000  Level Jacksonville Center
11:18AM 32.3761 -81.9506 167° South 440 506 38,000  Level Jacksonville Center
11:19AM 32.2672 -81.9219 167° South 447 514 38,000  Level Jacksonville Center
11:20AM 32.1311 -81.8819 166° South 452 520 38,000  Level Jacksonville Center
11:21AM 32.0203 -81.8511 167° South 452 520 38,000  Level Jacksonville Center
11:22AM 31.8903 -81.7964 160° South 452 520 38,000  Level Jacksonville Center
11:23AM 31.7769 -81.7169 149° Southeast 466 536 38,000  Level Jacksonville Center
11:24AM 31.6758 -81.6378 146° Southeast 486 559 38,000  Level Jacksonville Center
11:25AM 31.5497 -81.5492 149° Southeast 486 559 38,000  Level Jacksonville Center
11:26AM 31.4389 -81.5242 169° South 453 521 38,000  Level Jacksonville Center
11:27AM 31.3050 -81.4992 171° South 453 521 38,000  Level Jacksonville Center
11:28AM 31.1794 -81.4744 170° South 446 513 38,000  Level Jacksonville Center
11:29AM 31.0558 -81.4497 170° South 451 519 38,000  Level Jacksonville Center
11:30AM 30.9325 -81.4272 171° South 451 519 38,000  Level Jacksonville Center
11:31AM 30.8089 -81.4003 169° South 451 519 38,000  Level Jacksonville Center
11:32AM 30.6856 -81.3756 170° South 451 519 38,000  Level Jacksonville Center
11:33AM 30.5578 -81.3533 171° South 451 519 38,000  Level Jacksonville Center
11:34AM 30.4322 -81.3289 170° South 451 519 38,000  Level Jacksonville Center
11:35AM 30.3047 -81.3047 171° South 456 525 38,000  Level Jacksonville Center
11:36AM 30.1769 -81.2803 171° South 461 531 38,000  Level Jacksonville Center
11:37AM 30.0494 -81.2561 171° South 466 536 38,000  Level Jacksonville Center
11:38AM 29.9217 -81.2319 171° South 466 536 38,000  Level Jacksonville Center
11:39AM 29.7983 -81.2100 171° South 466 536 38,000  Level Jacksonville Center
11:40AM 29.6683 -81.1861 171° South 466 536 38,000  Level Jacksonville Center
11:41AM 29.5428 -81.1594 170° South 466 536 38,000  Level Jacksonville Center
11:42AM 29.4256 -81.1378 171° South 466 536 38,000  Level Jacksonville Center
11:43AM 29.2981 -81.1092 169° South 471 542 38,000 -360 Level Jacksonville Center
11:45AM 29.0603 -80.9422 148° Southeast 484 557 37,100 -660 Descending Miami Center
11:46AM 28.9419 -80.8550 147° Southeast 495 570 36,200 -600 Descending Miami Center
11:47AM 28.8275 -80.7703 147° Southeast 507 583 36,000 -120 Descending Miami Center
11:48AM 28.7211 -80.6933 148° Southeast 502 578 36,000 -840 Level Miami Center
11:49AM 28.6042 -80.6158 150° Southeast 502 578 34,400 -1,980 Descending Miami Center
11:50AM 28.4636 -80.5639 162° South 489 563 32,100 -2,160 Descending Miami Center
11:51AM 28.3314 -80.5100 160° South 490 564 30,100 -2,040 Descending Miami Center
11:52AM 28.2072 -80.4661 163° South 485 558 28,100 -1,980 Descending Miami Center
11:53AM 28.0917 -80.4222 161° South 485 558 26,200 -1,980 Descending Miami Center
11:54AM 27.9675 -80.3761 162° South 480 552 24,200 -2,220 Descending Miami Center
11:55AM 27.8456 -80.3300 162° South 473 544 21,800 -2,700 Descending Miami Center
11:56AM 27.7358 -80.2914 163° South 447 514 18,800 -3,000 Descending Miami Center
11:57AM 27.6303 -80.2508 161° South 387 445 15,900 -2,460 Descending Miami Center
11:58AM 27.5494 -80.2228 163° South 348 400 13,900 -2,040 Descending Miami Center
11:59AM 27.4667 -80.1900 161° South 325 374 11,900 -1,980 Descending Miami Center
12:00PM 27.3839 -80.1594 162° South 296 341 10,000 -960 Descending Miami Center
12:01PM 27.3114 -80.1364 164° South 282 325 10,000 -60 Level Miami Center
12:02PM 27.2386 -80.1156 166° South 277 319 9,900 -840 Descending Miami Center
12:03PM 27.1831 -80.0814 151° Southeast 261 300 8,400 -1,800 Descending Miami Center
12:04PM 27.1150 -80.0397 151° Southeast 256 295 6,400 -1,980 Descending Miami Center
12:05PM 27.0533 -80.0031 152° Southeast 256 295 4,500 -1,680 Descending Miami Center
12:06PM 26.9892 -79.9733 158° South 256 295 3,100 -780 Descending Miami Center
12:07PM 26.9247 -79.9600 170° South 250 288 3,000 -120 Descending Miami Center
12:09PM 26.8000 -80.1021 270° West  Level FlightAware Approximate
12:16PM 26.6832 -80.0956 110° East  Level Estimated
12:17PM 26.6832 -80.0956 110° East  Level Estimated
12:18PM 26.6832 -80.0956 110° East  Level Estimated
12:19PM 26.6832 -80.0956 110° East  Level Estimated
12:20PM 26.6832 -80.0956 110° East  Level Estimated
12:21PM 26.6832 -80.0956 110° East  Level Estimated
12:22PM 26.6832 -80.0956 110° East  Level Estimated
12:23PM 26.6832 -80.0956 110° East  Level Estimated
12:24PM 26.6832 -80.0956 110° East  Level Estimated